Time;durP1;ratioP1;P1;durP2;ratioP2;P2;SDS_P1;SDS_P2;PMS_P1;PMS_P2;Temp;Humidity;BMP_temperature;BMP_pressure;BME280_temperature;BME280_humidity;BME280_pressure;Samples;Min_cycle;Max_cycle;Signal;HPM_P1;HPM_P2
2022/05/25 00:00:43;;;;;;;;;;;;;;;-140.72;100.00;52727.72;4945769;29;19925;-69
2022/05/25 00:03:08;;;;;;;;;;;;;;;-140.72;100.00;52735.81;4961877;29;19958;-70
2022/05/25 00:05:34;;;;;;;;;;;;;;;-140.72;100.00;52683.06;4959218;29;19986;-70
2022/05/25 00:08:00;;;;;;;;;;;;;;;-140.72;100.00;52731.75;4959005;29;19941;-70
2022/05/25 00:10:25;;;;;;;;;;;;;;;-140.72;100.00;52752.06;4958762;29;20274;-70
2022/05/25 00:12:50;;;;;;;;;;;;;;;-140.72;100.00;52752.06;4959146;29;20005;-70
2022/05/25 00:15:16;;;;;;;;;;;;;;;-140.72;100.00;52717.56;4958510;29;20346;-70
2022/05/25 00:17:41;;;;;;;;;;;;;;;-140.72;100.00;52745.97;4957817;28;19922;-70
2022/05/25 00:20:07;;;;;;;;;;;;;;;-140.72;100.00;52723.66;4958361;29;20345;-70
2022/05/25 00:22:46;;;;;;;;;;;;;;;-140.72;100.00;52735.81;4940786;29;20021;-70
2022/05/25 00:25:13;;;;;;;;;;;;;;;-140.72;100.00;52737.84;4957987;29;19922;-70
2022/05/25 00:27:39;;;;;;;;;;;;;;;-140.72;100.00;52707.41;4958071;28;19919;-70
2022/05/25 00:30:04;;;;;;;;;;;;;;;-140.72;100.00;52687.13;4958159;28;19940;-70
2022/05/25 00:32:29;;;;;;;;;;;;;;;-140.72;100.00;52719.59;4958578;28;19918;-70
2022/05/25 00:34:54;;;;;;;;;;;;;;;-140.72;100.00;52695.25;4958476;29;19965;-70
2022/05/25 00:37:20;;;;;;;;;;;;;;;-140.72;100.00;52729.75;4958372;28;19946;-70
2022/05/25 00:39:45;;;;;;;;;;;;;;;-140.72;100.00;52715.53;4959078;29;20358;-69
2022/05/25 00:42:10;;;;;;;;;;;;;;;-140.72;100.00;52711.47;4942473;29;19930;-70
2022/05/25 00:44:35;;;;;;;;;;;;;;;-140.72;100.00;52748.00;4958555;29;20375;-70
2022/05/25 00:47:01;;;;;;;;;;;;;;;-140.72;100.00;52695.25;4958399;29;19941;-70
2022/05/25 00:49:28;;;;;;;;;;;;;;;-140.72;100.00;52729.75;4957995;28;19919;-70
2022/05/25 00:52:04;;;;;;;;;;;;;;;-140.72;100.00;52727.72;4958305;29;19918;-70
2022/05/25 00:54:32;;;;;;;;;;;;;;;-140.72;100.00;52689.16;4958268;29;19919;-70
2022/05/25 00:57:00;;;;;;;;;;;;;;;-140.72;100.00;52711.47;4958332;29;20001;-70
2022/05/25 00:59:27;;;;;;;;;;;;;;;-140.72;100.00;52713.50;4958025;29;20005;-69
2022/05/25 01:01:54;;;;;;;;;;;;;;;-140.72;100.00;52764.25;4957987;29;19918;-70
2022/05/25 01:04:19;;;;;;;;;;;;;;;-140.72;100.00;52707.41;4957644;29;20046;-70
2022/05/25 01:06:50;;;;;;;;;;;;;;;-140.72;100.00;52648.56;4958684;29;19922;-70
2022/05/25 01:09:36;;;;;;;;;;;;;;;-140.72;100.00;52719.59;4963528;29;19918;-70
2022/05/25 01:12:07;;;;;;;;;;;;;;;-140.72;100.00;52727.72;4952624;29;19966;-70
2022/05/25 01:14:58;;;;;;;;;;;;;;;-140.72;100.00;52733.78;4963359;29;19918;-70
2022/05/25 01:17:42;;;;;;;;;;;;;;;-140.72;100.00;52723.66;4963361;29;19965;-70
2022/05/25 01:20:13;;;;;;;;;;;;;;;-140.72;100.00;52707.41;4944199;29;20436;-70
2022/05/25 01:22:41;;;;;;;;;;;;;;;-140.72;100.00;52672.91;4958183;29;19989;-70
2022/05/25 01:25:14;;;;;;;;;;;;;;;-140.72;100.00;52717.56;4958003;29;19957;-70
2022/05/25 01:27:44;;;;;;;;;;;;;;;-140.72;100.00;52725.69;4958015;29;19940;-70
2022/05/25 01:30:22;;;;;;;;;;;;;;;-140.72;100.00;52711.47;4958411;29;19954;-70
2022/05/25 01:32:57;;;;;;;;;;;;;;;-140.72;100.00;52697.28;4940652;29;20247;-71
2022/05/25 01:35:28;;;;;;;;;;;;;;;-140.72;100.00;52735.81;4958284;28;20025;-70
2022/05/25 01:37:57;;;;;;;;;;;;;;;-140.72;100.00;52723.66;4941115;29;20283;-70
2022/05/25 01:40:28;;;;;;;;;;;;;;;-140.72;100.00;52731.75;4951621;29;19923;-70
2022/05/25 01:43:06;;;;;;;;;;;;;;;-140.72;100.00;52685.09;4954712;29;19922;-70
2022/05/25 01:45:33;;;;;;;;;;;;;;;-140.72;100.00;52711.47;4957063;29;19926;-70
2022/05/25 01:48:02;;;;;;;;;;;;;;;-140.72;100.00;52681.03;4957509;29;19926;-70
2022/05/25 01:50:36;;;;;;;;;;;;;;;-140.72;100.00;52715.53;4957305;29;19922;-70
2022/05/25 01:53:03;;;;;;;;;;;;;;;-140.72;100.00;52691.19;4957650;29;19966;-70
2022/05/25 01:55:31;;;;;;;;;;;;;;;-140.72;100.00;52723.66;4957790;29;19918;-70
2022/05/25 01:58:07;;;;;;;;;;;;;;;-140.72;100.00;52727.72;4957211;29;19923;-70
2022/05/25 02:00:34;;;;;;;;;;;;;;;-140.72;100.00;52707.41;4956929;28;19990;-70
2022/05/25 02:05:48;;;;;;;;;;;;;;;-140.72;100.00;52727.72;4960010;29;20455;-70
2022/05/25 02:08:16;;;;;;;;;;;;;;;-140.72;100.00;52707.41;4959630;29;19925;-70
2022/05/25 02:10:56;;;;;;;;;;;;;;;-140.72;100.00;52719.59;4957896;29;19925;-70
2022/05/25 02:13:40;;;;;;;;;;;;;;;-140.72;100.00;52709.44;4957685;29;19922;-70
2022/05/25 02:16:16;;;;;;;;;;;;;;;-140.72;100.00;52707.41;4957284;29;20326;-70
2022/05/25 02:18:44;;;;;;;;;;;;;;;-140.72;100.00;52725.69;4939783;29;19989;-70
2022/05/25 02:21:28;;;;;;;;;;;;;;;-140.72;100.00;52699.31;4957073;29;19922;-70
2022/05/25 02:23:56;;;;;;;;;;;;;;;-140.72;100.00;52683.06;4957159;29;19919;-70
2022/05/25 02:26:28;;;;;;;;;;;;;;;-140.72;100.00;52668.84;4956476;29;19918;-70
2022/05/25 02:28:56;;;;;;;;;;;;;;;-140.72;100.00;52725.69;4956367;29;20366;-70
2022/05/25 02:31:24;;;;;;;;;;;;;;;-140.72;100.00;52768.28;4956554;29;19918;-70
2022/05/25 02:33:54;;;;;;;;;;;;;;;-140.72;100.00;52727.72;4955773;29;19973;-70
2022/05/25 02:36:20;;;;;;;;;;;;;;;-140.72;100.00;52719.59;4956659;28;20000;-70
2022/05/25 02:38:49;;;;;;;;;;;;;;;-140.72;100.00;52709.44;4939132;29;20362;-70
2022/05/25 02:41:25;;;;;;;;;;;;;;;-140.72;100.00;52699.31;4956629;28;19923;-70
2022/05/25 02:43:51;;;;;;;;;;;;;;;-140.72;100.00;52691.19;4956951;29;19923;-70
2022/05/25 02:46:16;;;;;;;;;;;;;;;-140.72;100.00;52741.91;4951571;29;19926;-70
2022/05/25 02:48:41;;;;;;;;;;;;;;;-140.72;100.00;52748.00;4937609;29;20010;-70
2022/05/25 02:51:07;;;;;;;;;;;;;;;-140.72;100.00;52689.16;4942913;29;19926;-70
2022/05/25 02:53:46;;;;;;;;;;;;;;;-140.72;100.00;52752.06;4956350;29;19919;-70
2022/05/25 02:56:14;;;;;;;;;;;;;;;-140.72;100.00;52719.59;4955967;29;20029;-70
2022/05/25 02:58:39;;;;;;;;;;;;;;;-140.72;100.00;52699.31;4956489;29;19918;-70
2022/05/25 03:01:11;;;;;;;;;;;;;;;-140.72;100.00;52729.75;4939094;29;19970;-70
2022/05/25 03:03:37;;;;;;;;;;;;;;;-140.72;100.00;52743.94;4935638;29;20005;-70
2022/05/25 03:06:04;;;;;;;;;;;;;;;-140.72;100.00;52756.13;4937115;29;20287;-69
2022/05/25 03:08:29;;;;;;;;;;;;;;;-140.72;100.00;52731.75;4937379;29;19919;-70
2022/05/25 03:10:54;;;;;;;;;;;;;;;-140.72;100.00;52774.38;4937708;29;20362;-70
2022/05/25 03:13:19;;;;;;;;;;;;;;;-140.72;100.00;52745.97;4940502;29;19976;-70
2022/05/25 03:15:44;;;;;;;;;;;;;;;-140.72;100.00;52687.13;4941738;29;19929;-70
2022/05/25 03:18:10;;;;;;;;;;;;;;;-140.72;100.00;52693.22;4940898;29;20083;-70
2022/05/25 03:20:35;;;;;;;;;;;;;;;-140.72;100.00;52691.19;4940308;29;20069;-70
2022/05/25 03:23:00;;;;;;;;;;;;;;;-140.72;100.00;52715.53;4941267;29;19929;-70
2022/05/25 03:25:25;;;;;;;;;;;;;;;-140.72;100.00;52717.56;4940562;29;19925;-70
2022/05/25 03:27:51;;;;;;;;;;;;;;;-140.72;100.00;52731.75;4940339;29;19929;-70
2022/05/25 03:30:17;;;;;;;;;;;;;;;-140.72;100.00;52743.94;4940933;29;20244;-70
2022/05/25 03:32:42;;;;;;;;;;;;;;;-140.72;100.00;52719.59;4939467;29;20412;-70
2022/05/25 03:35:09;;;;;;;;;;;;;;;-140.72;100.00;52715.53;4939965;29;19954;-70
2022/05/25 03:37:34;;;;;;;;;;;;;;;-140.72;100.00;52689.16;4940775;29;19918;-70
2022/05/25 03:39:59;;;;;;;;;;;;;;;-140.72;100.00;52721.63;4940897;29;19942;-70
2022/05/25 03:42:24;;;;;;;;;;;;;;;-140.72;100.00;52707.41;4940275;29;20310;-70
2022/05/25 03:44:50;;;;;;;;;;;;;;;-140.72;100.00;52727.72;4940056;29;19926;-70
2022/05/25 03:47:16;;;;;;;;;;;;;;;-140.72;100.00;52715.53;4949313;29;20030;-71
2022/05/25 03:49:41;;;;;;;;;;;;;;;-140.72;100.00;52737.84;4956323;29;19923;-73
2022/05/25 03:52:06;;;;;;;;;;;;;;;-140.72;100.00;52731.75;4957699;29;19945;-73
2022/05/25 03:54:32;;;;;;;;;;;;;;;-140.72;100.00;52721.63;4941212;29;20007;-73
2022/05/25 03:56:57;;;;;;;;;;;;;;;-140.72;100.00;52687.13;4957752;29;19986;-73
2022/05/25 03:59:22;;;;;;;;;;;;;;;-140.72;100.00;52699.31;4964653;29;19918;-73
2022/05/25 04:01:47;;;;;;;;;;;;;;;-140.72;100.00;52719.59;4961661;29;19969;-73
2022/05/25 04:04:13;;;;;;;;;;;;;;;-140.72;100.00;52723.66;4960317;29;19930;-72
2022/05/25 04:06:38;;;;;;;;;;;;;;;-140.72;100.00;52707.41;4970564;29;19919;-73
2022/05/25 04:09:05;;;;;;;;;;;;;;;-140.72;100.00;52735.81;4960234;29;19919;-73
2022/05/25 04:11:30;;;;;;;;;;;;;;;-140.72;100.00;52693.22;4979631;29;19957;-73
2022/05/25 04:13:56;;;;;;;;;;;;;;;-140.72;100.00;52666.84;4961311;29;19918;-72
2022/05/25 04:16:21;;;;;;;;;;;;;;;-140.72;100.00;52683.06;4961555;29;19922;-73
2022/05/25 04:18:46;;;;;;;;;;;;;;;-140.72;100.00;52687.13;4960551;29;19981;-73
2022/05/25 04:21:11;;;;;;;;;;;;;;;-140.72;100.00;52699.31;4976617;29;19985;-73
2022/05/25 04:23:37;;;;;;;;;;;;;;;-140.72;100.00;52674.94;4975637;28;19946;-73
2022/05/25 04:26:02;;;;;;;;;;;;;;;-140.72;100.00;52697.28;4956193;29;19922;-72
2022/05/25 04:28:27;;;;;;;;;;;;;;;-140.72;100.00;52674.94;4972986;29;20059;-73
2022/05/25 04:30:52;;;;;;;;;;;;;;;-140.72;100.00;52679.00;4970054;29;19919;-73
2022/05/25 04:33:17;;;;;;;;;;;;;;;-140.72;100.00;52666.84;4953926;29;19919;-73
2022/05/25 04:35:43;;;;;;;;;;;;;;;-140.72;100.00;52679.00;4972424;28;19907;-74
2022/05/25 04:38:08;;;;;;;;;;;;;;;-140.72;100.00;52683.06;4954773;29;19958;-73
2022/05/25 04:40:37;;;;;;;;;;;;;;;-140.72;100.00;52672.91;4963747;28;19919;-74
2022/05/25 04:43:05;;;;;;;;;;;;;;;-140.72;100.00;52719.59;4968763;28;19930;-72
2022/05/25 04:45:31;;;;;;;;;;;;;;;-140.72;100.00;52681.03;4966572;29;19957;-72
2022/05/25 04:47:58;;;;;;;;;;;;;;;-140.72;100.00;52703.34;4950691;29;19962;-71
2022/05/25 04:50:24;;;;;;;;;;;;;;;-140.72;100.00;52739.88;4959457;29;20381;-72
2022/05/25 04:52:50;;;;;;;;;;;;;;;-140.72;100.00;52699.31;4958365;29;19918;-71
2022/05/25 04:57:59;;;;;;;;;;;;;;;-140.72;100.00;52691.19;4960502;29;19925;-71
2022/05/25 05:00:25;;;;;;;;;;;;;;;-140.72;100.00;52709.44;4958881;29;20013;-70
2022/05/25 05:02:50;;;;;;;;;;;;;;;-140.72;100.00;52693.22;4958005;29;19929;-71
2022/05/25 05:05:17;;;;;;;;;;;;;;;-140.72;100.00;52666.84;4958056;29;19925;-71
2022/05/25 05:07:42;;;;;;;;;;;;;;;-140.72;100.00;52709.44;4958245;29;19959;-71
2022/05/25 05:10:08;;;;;;;;;;;;;;;-140.72;100.00;52687.13;4957602;29;19984;-70
2022/05/25 05:12:33;;;;;;;;;;;;;;;-140.72;100.00;52672.91;4940905;29;19937;-70
2022/05/25 05:14:58;;;;;;;;;;;;;;;-140.72;100.00;52685.09;4958838;29;19927;-71
2022/05/25 05:17:24;;;;;;;;;;;;;;;-140.72;100.00;52679.00;4960475;29;19919;-71
2022/05/25 05:19:49;;;;;;;;;;;;;;;-140.72;100.00;52670.88;4960665;29;19918;-70
2022/05/25 05:22:14;;;;;;;;;;;;;;;-140.72;100.00;52681.03;4961777;29;20353;-71
2022/05/25 05:24:40;;;;;;;;;;;;;;;-140.72;100.00;52685.09;4960829;29;19946;-70
2022/05/25 05:27:07;;;;;;;;;;;;;;;-140.72;100.00;52648.56;4960386;29;19918;-71
2022/05/25 05:29:33;;;;;;;;;;;;;;;-140.72;100.00;52703.34;4942283;29;19985;-70
2022/05/25 05:31:58;;;;;;;;;;;;;;;-140.72;100.00;52674.94;4958594;29;20402;-71
2022/05/25 05:34:27;;;;;;;;;;;;;;;-140.72;100.00;52683.06;4959540;29;20013;-71
2022/05/25 05:36:56;;;;;;;;;;;;;;;-140.72;100.00;52670.88;4954915;28;19965;-71
2022/05/25 05:39:23;;;;;;;;;;;;;;;-140.72;100.00;52670.88;4939582;29;20064;-75
2022/05/25 05:41:51;;;;;;;;;;;;;;;-140.72;100.00;52687.13;4938232;29;19923;-72
2022/05/25 05:44:19;;;;;;;;;;;;;;;-140.72;100.00;52650.59;4938839;29;19923;-75
2022/05/25 05:46:45;;;;;;;;;;;;;;;-140.72;100.00;52658.72;4940026;29;19922;-72
2022/05/25 05:49:11;;;;;;;;;;;;;;;-140.72;100.00;52646.53;4921327;29;19977;-72
2022/05/25 05:51:37;;;;;;;;;;;;;;;-140.72;100.00;52626.25;4921241;29;20031;-72
2022/05/25 05:54:02;;;;;;;;;;;;;;;-140.72;100.00;52644.50;4937867;29;19923;-76
2022/05/25 05:56:28;;;;;;;;;;;;;;;-140.72;100.00;52646.53;4939574;29;20307;-73
2022/05/25 05:58:53;;;;;;;;;;;;;;;-140.72;100.00;52640.44;4938135;29;19930;-74
2022/05/25 06:01:18;;;;;;;;;;;;;;;-140.72;100.00;52614.06;4936835;29;19925;-72
2022/05/25 06:03:44;;;;;;;;;;;;;;;-140.72;100.00;52666.84;4935794;29;19969;-72
2022/05/25 06:06:09;;;;;;;;;;;;;;;-140.72;100.00;52624.22;4919239;29;19971;-72
2022/05/25 06:08:34;;;;;;;;;;;;;;;-140.72;100.00;52607.97;4936844;29;19954;-72
2022/05/25 06:11:00;;;;;;;;;;;;;;;-140.72;100.00;52628.28;4919630;29;20420;-72
2022/05/25 06:13:25;;;;;;;;;;;;;;;-140.72;100.00;52646.53;4936556;29;19919;-72
2022/05/25 06:21:19;;;;;;;;;;;;;;;-140.72;100.00;52634.38;4940652;29;19929;-72
2022/05/25 06:23:44;;;;;;;;;;;;;;;-140.72;100.00;52632.34;4921412;29;19923;-72
2022/05/25 06:26:10;;;;;;;;;;;;;;;-140.72;100.00;52626.25;4936723;29;19934;-72
2022/05/25 06:28:35;;;;;;;;;;;;;;;-140.72;100.00;52577.53;4937057;29;20294;-72
2022/05/25 06:31:00;;;;;;;;;;;;;;;-140.72;100.00;52618.13;4936926;29;19975;-72
2022/05/25 06:33:25;;;;;;;;;;;;;;;-140.72;100.00;52610.00;4936790;29;20402;-72
2022/05/25 06:35:51;;;;;;;;;;;;;;;-140.72;100.00;52597.84;4950072;29;19930;-73
2022/05/25 06:38:16;;;;;;;;;;;;;;;-140.72;100.00;52642.47;4955178;29;19918;-72
2022/05/25 06:40:41;;;;;;;;;;;;;;;-140.72;100.00;52597.84;4955565;29;19918;-72
2022/05/25 06:43:06;;;;;;;;;;;;;;;-140.72;100.00;52612.03;4951034;29;19927;-72
2022/05/25 06:45:32;;;;;;;;;;;;;;;-140.72;100.00;52567.41;4956659;28;19930;-72
2022/05/25 06:47:57;;;;;;;;;;;;;;;-140.72;100.00;52616.09;4955647;29;19918;-73
2022/05/25 06:50:22;;;;;;;;;;;;;;;-140.72;100.00;52534.94;4954992;29;19918;-73
2022/05/25 06:52:47;;;;;;;;;;;;;;;-140.72;100.00;52597.84;4954201;28;20696;-73
2022/05/25 06:55:12;;;;;;;;;;;;;;;-140.72;100.00;52565.38;4955911;28;20081;-74
2022/05/25 06:57:38;;;;;;;;;;;;;;;-140.72;100.00;52575.50;4954788;29;20064;-74
2022/05/25 07:00:03;;;;;;;;;;;;;;;-140.72;100.00;52593.78;4956029;29;19925;-68
2022/05/25 07:02:28;;;;;;;;;;;;;;;-140.72;100.00;52528.84;4958263;28;19919;-69
2022/05/25 07:04:54;;;;;;;;;;;;;;;-140.72;100.00;52551.16;4959748;28;20348;-69
2022/05/25 07:07:19;;;;;;;;;;;;;;;-140.72;100.00;52569.44;4961231;28;19936;-69
2022/05/25 07:09:44;;;;;;;;;;;;;;;-140.72;100.00;52607.97;4955243;29;20390;-69
2022/05/25 07:12:10;;;;;;;;;;;;;;;-140.72;100.00;52585.66;4955525;29;19918;-69
2022/05/25 07:14:36;;;;;;;;;;;;;;;-140.72;100.00;52571.47;4955229;28;19923;-70
2022/05/25 07:17:01;;;;;;;;;;;;;;;-140.72;100.00;52612.03;4946824;28;20343;-69
2022/05/25 07:19:26;;;;;;;;;;;;;;;-140.72;100.00;52555.22;4953228;28;20013;-70
2022/05/25 07:21:52;;;;;;;;;;;;;;;-140.72;100.00;52581.59;4953617;28;20125;-70
2022/05/25 07:24:17;;;;;;;;;;;;;;;-140.72;100.00;52585.66;4953458;28;19954;-70
2022/05/25 07:26:42;;;;;;;;;;;;;;;-140.72;100.00;52549.13;4947188;28;19919;-70
2022/05/25 07:29:08;;;;;;;;;;;;;;;-140.72;100.00;52567.41;4956426;28;19919;-70
2022/05/25 07:31:39;;;;;;;;;;;;;;;-140.72;100.00;52581.59;4953542;29;20396;-70
2022/05/25 07:34:06;;;;;;;;;;;;;;;-140.72;100.00;52585.66;4948833;28;20018;-70
2022/05/25 07:36:32;;;;;;;;;;;;;;;-140.72;100.00;52601.91;4945069;28;19922;-71
2022/05/25 07:38:59;;;;;;;;;;;;;;;-140.72;100.00;52561.31;4953906;29;19923;-70
2022/05/25 07:41:25;;;;;;;;;;;;;;;-140.72;100.00;52545.06;4949012;28;19993;-70
2022/05/25 07:43:57;;;;;;;;;;;;;;;-140.72;100.00;52545.06;4944417;28;19926;-70
2022/05/25 07:46:22;;;;;;;;;;;;;;;-140.72;100.00;52591.75;4947601;29;19923;-70
2022/05/25 07:48:47;;;;;;;;;;;;;;;-140.72;100.00;52539.00;4947777;29;20272;-70
2022/05/25 07:51:13;;;;;;;;;;;;;;;-140.72;100.00;52528.84;4937113;29;19996;-70
2022/05/25 07:53:56;;;;;;;;;;;;;;;-140.72;100.00;52514.63;4943293;29;20398;-70
2022/05/25 07:56:23;;;;;;;;;;;;;;;-140.72;100.00;52559.28;4920417;29;19929;-70
2022/05/25 07:58:49;;;;;;;;;;;;;;;-140.72;100.00;52522.75;4955270;28;20413;-71
2022/05/25 08:01:16;;;;;;;;;;;;;;;-140.72;100.00;52512.59;4960796;29;19950;-71
2022/05/25 08:06:28;;;;;;;;;;;;;;;-140.72;100.00;52494.34;4958300;29;20366;-72
2022/05/25 08:08:54;;;;;;;;;;;;;;;-140.72;100.00;52547.09;4946035;29;19919;-70
2022/05/25 08:11:23;;;;;;;;;;;;;;;-140.72;100.00;52547.09;4933586;29;20422;-72
2022/05/25 08:13:50;;;;;;;;;;;;;;;-140.72;100.00;52463.91;4926109;29;20335;-71
2022/05/25 08:16:16;;;;;;;;;;;;;;;-140.72;100.00;52476.09;4960230;29;19989;-71
2022/05/25 08:18:41;;;;;;;;;;;;;;;-140.72;100.00;52484.19;4959250;29;19930;-72
2022/05/25 08:21:06;;;;;;;;;;;;;;;-140.72;100.00;52478.13;4944827;29;19918;-72
2022/05/25 08:23:32;;;;;;;;;;;;;;;-140.72;100.00;52506.53;4979089;28;19933;-72
2022/05/25 08:25:57;;;;;;;;;;;;;;;-140.72;100.00;52516.66;4944537;29;19925;-72
2022/05/25 08:28:22;;;;;;;;;;;;;;;-140.72;100.00;52539.00;4946901;29;20370;-71
2022/05/25 08:30:48;;;;;;;;;;;;;;;-140.72;100.00;52478.13;4958260;28;20006;-72
2022/05/25 08:33:16;;;;;;;;;;;;;;;-140.72;100.00;52470.00;4958337;29;20001;-72
2022/05/25 08:35:41;;;;;;;;;;;;;;;-140.72;100.00;52500.44;4958368;28;19926;-72
2022/05/25 08:38:06;;;;;;;;;;;;;;;-140.72;100.00;52502.47;4958433;29;20298;-72
2022/05/25 08:40:32;;;;;;;;;;;;;;;-140.72;100.00;52516.66;4958615;29;20278;-71
2022/05/25 08:43:01;;;;;;;;;;;;;;;-140.72;100.00;52461.88;4953748;29;19922;-71
2022/05/25 08:45:31;;;;;;;;;;;;;;;-140.72;100.00;52463.91;4958204;28;20498;-71
2022/05/25 08:47:58;;;;;;;;;;;;;;;-140.72;100.00;52488.25;4957812;29;20030;-71
2022/05/25 08:50:23;;;;;;;;;;;;;;;-140.72;100.00;52488.25;4958952;28;19918;-72
2022/05/25 08:52:48;;;;;;;;;;;;;;;-140.72;100.00;52447.69;4957048;28;19925;-72
2022/05/25 08:55:23;;;;;;;;;;;;;;;-140.72;100.00;52457.81;4958012;29;19918;-72
2022/05/25 08:57:51;;;;;;;;;;;;;;;-140.72;100.00;52437.53;4957404;29;19930;-72
2022/05/25 09:00:18;;;;;;;;;;;;;;;-140.72;100.00;52421.28;4958430;28;20408;-72
2022/05/25 09:02:52;;;;;;;;;;;;;;;-140.72;100.00;52447.69;4956535;29;19926;-71
2022/05/25 09:05:25;;;;;;;;;;;;;;;-140.72;100.00;52431.44;4958225;29;20008;-71
2022/05/25 09:07:50;;;;;;;;;;;;;;;-140.72;100.00;52429.41;4956378;29;20033;-71
2022/05/25 09:10:17;;;;;;;;;;;;;;;-140.72;100.00;52459.84;4957608;28;19925;-71
2022/05/25 09:12:44;;;;;;;;;;;;;;;-140.72;100.00;52401.00;4957534;28;19924;-71
2022/05/25 09:15:18;;;;;;;;;;;;;;;-140.72;100.00;52411.16;4959378;28;19918;-71
2022/05/25 09:17:46;;;;;;;;;;;;;;;-140.72;100.00;52476.09;4961013;29;19926;-71
2022/05/25 09:20:14;;;;;;;;;;;;;;;-140.72;100.00;52386.81;4958654;29;20393;-70
2022/05/25 09:22:41;;;;;;;;;;;;;;;-140.72;100.00;52427.38;4958139;29;20057;-71
2022/05/25 09:25:08;;;;;;;;;;;;;;;-140.72;100.00;52439.56;4964265;28;20235;-71
2022/05/25 09:27:38;;;;;;;;;;;;;;;-140.72;100.00;52427.38;4962941;28;19925;-70
2022/05/25 09:30:03;;;;;;;;;;;;;;;-140.72;100.00;52435.50;4958377;28;19961;-71
2022/05/25 09:32:32;;;;;;;;;;;;;;;-140.72;100.00;52476.09;4957975;28;19922;-71
2022/05/25 09:35:06;;;;;;;;;;;;;;;-140.72;100.00;52512.59;4957433;29;20308;-71
2022/05/25 09:37:34;;;;;;;;;;;;;;;-140.72;100.00;52413.19;4957125;28;19950;-71
2022/05/25 09:40:04;;;;;;;;;;;;;;;-140.72;100.00;52394.91;4955940;28;19926;-71
2022/05/25 09:42:33;;;;;;;;;;;;;;;-140.72;100.00;52354.34;4955094;28;20442;-70
2022/05/25 09:45:00;;;;;;;;;;;;;;;-140.72;100.00;52311.72;4957052;28;19974;-71
2022/05/25 09:47:31;;;;;;;;;;;;;;;-140.72;100.00;52279.25;4957124;28;19919;-71
2022/05/25 09:49:57;;;;;;;;;;;;;;;-140.72;100.00;52261.00;4957280;28;19926;-71
2022/05/25 09:52:43;;;;;;;;;;;;;;;-140.72;100.00;52366.50;4950662;29;19918;-71
2022/05/25 09:55:20;;;;;;;;;;;;;;;-140.72;100.00;52277.22;4957038;29;20390;-71
2022/05/25 09:57:52;;;;;;;;;;;;;;;-140.72;100.00;52340.13;4956080;29;19931;-71
2022/05/25 10:00:22;;;;;;;;;;;;;;;-140.72;100.00;52362.44;4956985;29;19927;-71
2022/05/25 10:02:49;;;;;;;;;;;;;;;-140.72;100.00;52386.81;4957203;28;19930;-72
2022/05/25 10:05:23;;;;;;;;;;;;;;;-140.72;100.00;52409.13;4958388;28;19932;-70
2022/05/25 10:07:56;;;;;;;;;;;;;;;-140.72;100.00;52394.91;4961729;29;20006;-71
2022/05/25 10:10:32;;;;;;;;;;;;;;;-140.72;100.00;52461.88;4961906;29;20402;-72
2022/05/25 10:13:16;;;;;;;;;;;;;;;-140.72;100.00;52313.75;4961206;29;19919;-71
2022/05/25 10:15:42;;;;;;;;;;;;;;;-140.72;100.00;52366.50;4959841;29;20009;-71
2022/05/25 10:18:12;;;;;;;;;;;;;;;-140.72;100.00;52390.84;4964980;29;19925;-70
2022/05/25 10:20:40;;;;;;;;;;;;;;;-140.72;100.00;52407.09;4966442;28;19918;-70
2022/05/25 10:23:08;;;;;;;;;;;;;;;-140.72;100.00;52484.19;4967260;28;19919;-71
2022/05/25 10:25:48;;;;;;;;;;;;;;;-140.72;100.00;52421.28;4971246;29;19918;-70
2022/05/25 10:28:28;;;;;;;;;;;;;;;-140.72;100.00;52388.84;4958957;28;19919;-70
2022/05/25 10:36:52;;;;;;;;;;;;;;;-140.72;100.00;52261.00;4957208;28;19929;-70
2022/05/25 10:39:26;;;;;;;;;;;;;;;-140.72;100.00;52295.50;4958084;28;19926;-70
2022/05/25 10:41:58;;;;;;;;;;;;;;;-140.72;100.00;52246.78;4957472;28;19923;-70
2022/05/25 10:44:24;;;;;;;;;;;;;;;-140.72;100.00;52194.03;4957159;29;19919;-71
2022/05/25 10:46:54;;;;;;;;;;;;;;;-140.72;100.00;52196.06;4956706;29;20021;-72
2022/05/25 10:49:41;;;;;;;;;;;;;;;-140.72;100.00;52185.94;4956129;29;20281;-70
2022/05/25 10:52:17;;;;;;;;;;;;;;;-140.72;100.00;52202.16;4956587;29;19919;-70
2022/05/25 10:54:45;;;;;;;;;;;;;;;-140.72;100.00;52222.44;4956566;29;20029;-69
2022/05/25 10:57:29;;;;;;;;;;;;;;;-140.72;100.00;52248.81;4939084;29;19960;-70
2022/05/25 11:00:00;;;;;;;;;;;;;;;-140.72;100.00;52232.59;4955495;29;19958;-70
2022/05/25 11:02:41;;;;;;;;;;;;;;;-140.72;100.00;52224.47;4956162;29;19925;-70
2022/05/25 11:05:22;;;;;;;;;;;;;;;-140.72;100.00;52149.41;4938427;29;19925;-69
2022/05/25 11:07:50;;;;;;;;;;;;;;;-140.72;100.00;52151.44;4955955;29;19925;-70
2022/05/25 11:10:33;;;;;;;;;;;;;;;-140.72;100.00;52277.22;4955367;29;19964;-70
2022/05/25 11:13:18;;;;;;;;;;;;;;;-140.72;100.00;52305.63;4955481;29;19969;-70
2022/05/25 11:15:54;;;;;;;;;;;;;;;-140.72;100.00;52175.78;4955936;29;19925;-71
2022/05/25 11:18:22;;;;;;;;;;;;;;;-140.72;100.00;52250.84;4956811;29;19918;-70
2022/05/25 11:21:06;;;;;;;;;;;;;;;-140.72;100.00;52183.91;4955446;29;19918;-70
2022/05/25 11:23:31;;;;;;;;;;;;;;;-140.72;100.00;52261.00;4956642;29;19923;-70
2022/05/25 11:26:15;;;;;;;;;;;;;;;-140.72;100.00;52252.88;4937966;29;19925;-70
2022/05/25 11:28:55;;;;;;;;;;;;;;;-140.72;100.00;52289.41;4955716;29;20266;-70
2022/05/25 11:31:43;;;;;;;;;;;;;;;-140.72;100.00;52358.41;4938203;29;20013;-70
2022/05/25 11:34:23;;;;;;;;;;;;;;;-140.72;100.00;52431.44;4941821;29;19930;-70
2022/05/25 11:37:00;;;;;;;;;;;;;;;-140.72;100.00;52398.97;4942684;29;20397;-69
2022/05/25 11:39:28;;;;;;;;;;;;;;;-140.72;100.00;52340.13;4960102;29;19934;-70
2022/05/25 11:41:56;;;;;;;;;;;;;;;-140.72;100.00;52366.50;4959374;28;20320;-70
2022/05/25 11:44:30;;;;;;;;;;;;;;;-140.72;100.00;52356.38;4958967;29;20010;-70
2022/05/25 11:47:01;;;;;;;;;;;;;;;-140.72;100.00;52368.53;4941954;29;20271;-70
2022/05/25 11:49:42;;;;;;;;;;;;;;;-140.72;100.00;52334.03;4959532;29;19919;-70
2022/05/25 11:52:26;;;;;;;;;;;;;;;-140.72;100.00;52261.00;4959143;29;19956;-70
2022/05/25 11:55:01;;;;;;;;;;;;;;;-140.72;100.00;52192.00;4941021;29;19923;-70
2022/05/25 11:57:50;;;;;;;;;;;;;;;-140.72;100.00;52285.34;4958937;29;19918;-70
2022/05/25 12:00:50;;;;;;;;;;;;;;;-140.72;100.00;52321.88;4958602;29;20032;-70
2022/05/25 12:03:18;;;;;;;;;;;;;;;-140.72;100.00;52313.75;4899145;29;19926;-71
2022/05/25 12:05:49;;;;;;;;;;;;;;;-140.72;100.00;52291.44;4946923;29;20022;-70
2022/05/25 12:08:33;;;;;;;;;;;;;;;-140.72;100.00;52303.59;4958020;29;20375;-70
2022/05/25 12:11:17;;;;;;;;;;;;;;;-140.72;100.00;52378.69;4958578;29;19919;-70
2022/05/25 12:13:46;;;;;;;;;;;;;;;-140.72;100.00;52342.16;4958590;29;19918;-70
2022/05/25 12:16:19;;;;;;;;;;;;;;;-140.72;100.00;52374.63;4940647;29;20450;-71
2022/05/25 12:18:55;;;;;;;;;;;;;;;-140.72;100.00;52346.22;4958085;29;19922;-70
2022/05/25 12:21:23;;;;;;;;;;;;;;;-140.72;100.00;52401.00;4958820;29;20417;-70
2022/05/25 12:23:56;;;;;;;;;;;;;;;-140.72;100.00;52362.44;4958014;29;19934;-70
2022/05/25 12:26:25;;;;;;;;;;;;;;;-140.72;100.00;52384.78;4958577;29;20013;-70
2022/05/25 12:28:52;;;;;;;;;;;;;;;-140.72;100.00;52370.56;4941657;29;19918;-70
2022/05/25 12:31:20;;;;;;;;;;;;;;;-140.72;100.00;52386.81;4976555;28;19934;-70
2022/05/25 12:33:45;;;;;;;;;;;;;;;-140.72;100.00;52352.31;4966196;29;19929;-71
2022/05/25 12:36:11;;;;;;;;;;;;;;;-140.72;100.00;52362.44;4962603;28;19922;-70
2022/05/25 12:38:37;;;;;;;;;;;;;;;-140.72;100.00;52374.63;4958303;29;19997;-70
2022/05/25 12:41:21;;;;;;;;;;;;;;;-140.72;100.00;52370.56;4957762;29;19966;-71
2022/05/25 12:43:46;;;;;;;;;;;;;;;-140.72;100.00;52403.03;4958055;29;20002;-70
2022/05/25 12:49:01;;;;;;;;;;;;;;;-140.72;100.00;52435.50;4958112;29;19930;-70